sensor_id;sensor_type;location;lat;lon;timestamp;pressure;altitude;pressure_sealevel;temperature;humidity
67818;BME280;54614;47.576;7.524;2022-10-16T00:01:26;98337.31;;;28.09;41.55
67818;BME280;54614;47.576;7.524;2022-10-16T00:03:52;98352.72;;;28.08;41.53
67818;BME280;54614;47.576;7.524;2022-10-16T00:06:21;98346.06;;;27.99;41.67
67818;BME280;54614;47.576;7.524;2022-10-16T00:08:49;98343.66;;;28.14;41.37
67818;BME280;54614;47.576;7.524;2022-10-16T00:11:24;98338.59;;;28.18;41.25
67818;BME280;54614;47.576;7.524;2022-10-16T00:13:56;98336.78;;;27.95;41.66
67818;BME280;54614;47.576;7.524;2022-10-16T00:16:23;98337.00;;;28.05;41.47
67818;BME280;54614;47.576;7.524;2022-10-16T00:18:49;98334.75;;;28.02;41.36
67818;BME280;54614;47.576;7.524;2022-10-16T00:21:25;98335.34;;;28.04;41.46
67818;BME280;54614;47.576;7.524;2022-10-16T00:24:04;98347.91;;;28.10;41.27
67818;BME280;54614;47.576;7.524;2022-10-16T00:26:32;98351.47;;;27.99;41.45
67818;BME280;54614;47.576;7.524;2022-10-16T00:29:00;98355.69;;;27.95;41.74
67818;BME280;54614;47.576;7.524;2022-10-16T00:31:26;98354.41;;;27.98;41.36
67818;BME280;54614;47.576;7.524;2022-10-16T00:33:53;98362.75;;;27.96;41.73
67818;BME280;54614;47.576;7.524;2022-10-16T00:36:22;98366.16;;;28.03;41.52
67818;BME280;54614;47.576;7.524;2022-10-16T00:38:54;98366.19;;;27.91;41.72
67818;BME280;54614;47.576;7.524;2022-10-16T00:41:22;98368.25;;;28.01;41.48
67818;BME280;54614;47.576;7.524;2022-10-16T00:43:58;98365.03;;;28.16;41.26
67818;BME280;54614;47.576;7.524;2022-10-16T00:46:35;98360.53;;;27.93;41.72
67818;BME280;54614;47.576;7.524;2022-10-16T00:49:18;98365.34;;;27.91;41.52
67818;BME280;54614;47.576;7.524;2022-10-16T00:51:53;98362.06;;;27.89;41.96
67818;BME280;54614;47.576;7.524;2022-10-16T00:54:26;98352.66;;;27.91;41.75
67818;BME280;54614;47.576;7.524;2022-10-16T00:56:55;98348.41;;;27.96;41.48
67818;BME280;54614;47.576;7.524;2022-10-16T00:59:36;98363.00;;;27.95;41.60
67818;BME280;54614;47.576;7.524;2022-10-16T01:02:05;98365.19;;;28.09;41.50
67818;BME280;54614;47.576;7.524;2022-10-16T01:04:37;98370.50;;;28.04;41.32
67818;BME280;54614;47.576;7.524;2022-10-16T01:13:10;98375.22;;;27.97;41.57
67818;BME280;54614;47.576;7.524;2022-10-16T01:15:51;98386.19;;;27.79;41.92
67818;BME280;54614;47.576;7.524;2022-10-16T01:18:37;98392.88;;;27.88;41.80
67818;BME280;54614;47.576;7.524;2022-10-16T01:21:30;98390.16;;;27.88;41.90
67818;BME280;54614;47.576;7.524;2022-10-16T01:33:10;98386.03;;;27.97;41.37
67818;BME280;54614;47.576;7.524;2022-10-16T01:35:47;98380.28;;;27.93;41.42
67818;BME280;54614;47.576;7.524;2022-10-16T01:38:34;98371.31;;;28.05;41.35
67818;BME280;54614;47.576;7.524;2022-10-16T01:41:10;98376.84;;;27.98;41.46
67818;BME280;54614;47.576;7.524;2022-10-16T01:43:45;98376.28;;;27.96;41.70
67818;BME280;54614;47.576;7.524;2022-10-16T01:46:16;98371.25;;;27.88;41.74
67818;BME280;54614;47.576;7.524;2022-10-16T01:48:45;98371.25;;;27.88;41.42
67818;BME280;54614;47.576;7.524;2022-10-16T01:51:15;98360.16;;;28.01;41.43
67818;BME280;54614;47.576;7.524;2022-10-16T01:53:48;98364.19;;;27.87;41.81
67818;BME280;54614;47.576;7.524;2022-10-16T01:56:18;98361.47;;;27.87;41.49
67818;BME280;54614;47.576;7.524;2022-10-16T01:59:00;98376.41;;;27.89;41.33
67818;BME280;54614;47.576;7.524;2022-10-16T02:01:33;98387.91;;;27.97;41.49
67818;BME280;54614;47.576;7.524;2022-10-16T02:04:09;98389.91;;;27.89;41.53
67818;BME280;54614;47.576;7.524;2022-10-16T02:06:38;98392.72;;;27.95;41.45
67818;BME280;54614;47.576;7.524;2022-10-16T02:09:04;98396.72;;;28.04;41.24
67818;BME280;54614;47.576;7.524;2022-10-16T02:11:30;98391.31;;;27.92;41.60
67818;BME280;54614;47.576;7.524;2022-10-16T02:14:04;98386.41;;;27.77;41.70
67818;BME280;54614;47.576;7.524;2022-10-16T02:16:43;98385.47;;;27.83;41.48
67818;BME280;54614;47.576;7.524;2022-10-16T02:19:11;98380.66;;;27.85;41.66
67818;BME280;54614;47.576;7.524;2022-10-16T02:22:05;98395.56;;;27.88;41.56
67818;BME280;54614;47.576;7.524;2022-10-16T02:24:57;98391.47;;;27.85;41.63
67818;BME280;54614;47.576;7.524;2022-10-16T02:32:54;98385.34;;;27.78;41.61
67818;BME280;54614;47.576;7.524;2022-10-16T02:35:23;98390.28;;;27.81;41.68
67818;BME280;54614;47.576;7.524;2022-10-16T02:37:50;98398.16;;;27.83;41.58
67818;BME280;54614;47.576;7.524;2022-10-16T02:40:18;98398.03;;;27.78;41.59
67818;BME280;54614;47.576;7.524;2022-10-16T02:42:44;98403.94;;;27.75;41.65
67818;BME280;54614;47.576;7.524;2022-10-16T02:45:11;98405.66;;;27.92;41.61
67818;BME280;54614;47.576;7.524;2022-10-16T02:47:37;98408.25;;;27.87;41.40
67818;BME280;54614;47.576;7.524;2022-10-16T02:50:04;98405.56;;;27.87;41.58
67818;BME280;54614;47.576;7.524;2022-10-16T02:52:30;98406.16;;;27.78;41.72
67818;BME280;54614;47.576;7.524;2022-10-16T02:54:56;98403.13;;;27.63;42.22
67818;BME280;54614;47.576;7.524;2022-10-16T02:57:22;98409.69;;;27.67;41.63
67818;BME280;54614;47.576;7.524;2022-10-16T02:59:47;98403.34;;;27.73;41.65
67818;BME280;54614;47.576;7.524;2022-10-16T03:02:13;98398.03;;;27.89;41.24
67818;BME280;54614;47.576;7.524;2022-10-16T03:04:39;98396.59;;;27.99;41.29
67818;BME280;54614;47.576;7.524;2022-10-16T03:07:05;98407.69;;;27.85;41.43
67818;BME280;54614;47.576;7.524;2022-10-16T03:09:31;98393.91;;;27.87;41.26
67818;BME280;54614;47.576;7.524;2022-10-16T03:11:57;98396.06;;;27.73;41.61
67818;BME280;54614;47.576;7.524;2022-10-16T03:14:23;98396.50;;;27.93;41.43
67818;BME280;54614;47.576;7.524;2022-10-16T03:16:48;98399.56;;;27.74;41.79
67818;BME280;54614;47.576;7.524;2022-10-16T03:19:16;98395.72;;;27.70;41.78
67818;BME280;54614;47.576;7.524;2022-10-16T03:21:43;98397.47;;;27.76;41.70
67818;BME280;54614;47.576;7.524;2022-10-16T03:24:09;98389.47;;;27.81;41.56
67818;BME280;54614;47.576;7.524;2022-10-16T03:26:35;98400.97;;;27.88;41.51
67818;BME280;54614;47.576;7.524;2022-10-16T03:29:01;98394.50;;;27.89;41.39
67818;BME280;54614;47.576;7.524;2022-10-16T03:31:30;98392.06;;;27.76;41.48
67818;BME280;54614;47.576;7.524;2022-10-16T03:33:56;98399.44;;;27.80;41.20
67818;BME280;54614;47.576;7.524;2022-10-16T03:36:22;98398.97;;;27.83;41.43
67818;BME280;54614;47.576;7.524;2022-10-16T03:38:48;98412.72;;;27.58;41.78
67818;BME280;54614;47.576;7.524;2022-10-16T03:41:14;98405.81;;;27.63;41.78
67818;BME280;54614;47.576;7.524;2022-10-16T03:43:39;98399.94;;;27.77;41.45
67818;BME280;54614;47.576;7.524;2022-10-16T03:46:05;98396.63;;;27.75;41.42
67818;BME280;54614;47.576;7.524;2022-10-16T03:48:31;98405.34;;;27.77;41.51
67818;BME280;54614;47.576;7.524;2022-10-16T03:50:58;98389.13;;;27.77;41.19
67818;BME280;54614;47.576;7.524;2022-10-16T03:53:24;98394.19;;;27.74;41.52
67818;BME280;54614;47.576;7.524;2022-10-16T03:55:50;98400.88;;;27.71;41.34
67818;BME280;54614;47.576;7.524;2022-10-16T03:58:16;98395.00;;;27.74;41.49
67818;BME280;54614;47.576;7.524;2022-10-16T04:00:44;98399.94;;;27.77;41.46
67818;BME280;54614;47.576;7.524;2022-10-16T04:03:11;98394.03;;;27.80;41.18
67818;BME280;54614;47.576;7.524;2022-10-16T04:05:37;98393.34;;;27.85;41.38
67818;BME280;54614;47.576;7.524;2022-10-16T04:08:03;98391.81;;;27.77;41.39
67818;BME280;54614;47.576;7.524;2022-10-16T04:10:30;98389.06;;;28.01;40.88
67818;BME280;54614;47.576;7.524;2022-10-16T04:12:56;98386.19;;;27.79;41.30
67818;BME280;54614;47.576;7.524;2022-10-16T04:15:23;98388.50;;;27.87;40.85
67818;BME280;54614;47.576;7.524;2022-10-16T04:17:49;98393.09;;;27.86;41.31
67818;BME280;54614;47.576;7.524;2022-10-16T04:20:15;98389.22;;;27.94;41.29
67818;BME280;54614;47.576;7.524;2022-10-16T04:22:41;98384.06;;;27.81;41.34
67818;BME280;54614;47.576;7.524;2022-10-16T04:25:07;98387.09;;;27.84;41.26
67818;BME280;54614;47.576;7.524;2022-10-16T04:27:32;98390.84;;;27.95;40.95
67818;BME280;54614;47.576;7.524;2022-10-16T04:29:59;98385.97;;;27.69;41.47
67818;BME280;54614;47.576;7.524;2022-10-16T04:32:26;98395.34;;;27.66;41.55
67818;BME280;54614;47.576;7.524;2022-10-16T04:34:52;98393.34;;;27.73;41.49
67818;BME280;54614;47.576;7.524;2022-10-16T04:37:18;98391.13;;;27.70;41.40
67818;BME280;54614;47.576;7.524;2022-10-16T04:39:44;98392.75;;;27.83;41.30
67818;BME280;54614;47.576;7.524;2022-10-16T04:42:10;98394.53;;;27.66;41.40
67818;BME280;54614;47.576;7.524;2022-10-16T04:44:36;98394.03;;;27.80;41.26
67818;BME280;54614;47.576;7.524;2022-10-16T04:47:02;98396.28;;;27.83;41.24
67818;BME280;54614;47.576;7.524;2022-10-16T04:49:30;98392.75;;;27.83;41.00
67818;BME280;54614;47.576;7.524;2022-10-16T04:51:55;98391.69;;;27.84;41.26
67818;BME280;54614;47.576;7.524;2022-10-16T04:54:21;98389.91;;;27.89;40.95
67818;BME280;54614;47.576;7.524;2022-10-16T04:56:47;98400.84;;;27.95;40.91
67818;BME280;54614;47.576;7.524;2022-10-16T04:59:16;98389.56;;;27.86;41.03
67818;BME280;54614;47.576;7.524;2022-10-16T05:01:43;98386.28;;;27.84;41.07
67818;BME280;54614;47.576;7.524;2022-10-16T05:04:10;98389.94;;;27.78;41.45
67818;BME280;54614;47.576;7.524;2022-10-16T05:06:37;98396.28;;;27.83;41.10
67818;BME280;54614;47.576;7.524;2022-10-16T05:09:05;98399.44;;;27.80;41.12
67818;BME280;54614;47.576;7.524;2022-10-16T05:11:31;98398.16;;;27.83;41.10
67818;BME280;54614;47.576;7.524;2022-10-16T05:13:57;98393.47;;;27.78;41.20
67818;BME280;54614;47.576;7.524;2022-10-16T05:16:23;98399.94;;;27.77;41.19
67818;BME280;54614;47.576;7.524;2022-10-16T05:18:49;98400.75;;;27.78;41.35
67818;BME280;54614;47.576;7.524;2022-10-16T05:21:16;98409.09;;;27.76;41.30
67818;BME280;54614;47.576;7.524;2022-10-16T05:23:42;98405.91;;;27.91;41.00
67818;BME280;54614;47.576;7.524;2022-10-16T05:26:08;98407.56;;;27.69;41.38
67818;BME280;54614;47.576;7.524;2022-10-16T05:28:34;98422.47;;;27.59;41.61
67818;BME280;54614;47.576;7.524;2022-10-16T05:31:08;98426.25;;;27.82;40.91
67818;BME280;54614;47.576;7.524;2022-10-16T05:33:34;98431.53;;;27.77;41.29
67818;BME280;54614;47.576;7.524;2022-10-16T05:36:08;98435.06;;;27.77;41.25
67818;BME280;54614;47.576;7.524;2022-10-16T05:38:38;98439.06;;;27.75;41.35
67818;BME280;54614;47.576;7.524;2022-10-16T05:41:05;98432.94;;;27.68;41.36
67818;BME280;54614;47.576;7.524;2022-10-16T05:43:31;98436.69;;;27.90;41.02
67818;BME280;54614;47.576;7.524;2022-10-16T05:46:05;98441.53;;;27.76;41.28
67818;BME280;54614;47.576;7.524;2022-10-16T05:48:32;98434.59;;;27.80;41.00
67818;BME280;54614;47.576;7.524;2022-10-16T05:51:01;98437.28;;;27.80;41.09
67818;BME280;54614;47.576;7.524;2022-10-16T05:53:30;98440.00;;;27.80;41.08
67818;BME280;54614;47.576;7.524;2022-10-16T05:55:57;98436.00;;;27.71;41.54
67818;BME280;54614;47.576;7.524;2022-10-16T05:58:25;98438.31;;;27.33;42.40
67818;BME280;54614;47.576;7.524;2022-10-16T06:01:01;98444.31;;;27.35;42.12
67818;BME280;54614;47.576;7.524;2022-10-16T06:03:28;98447.59;;;27.48;42.43
67818;BME280;54614;47.576;7.524;2022-10-16T06:05:54;98448.66;;;27.59;42.14
67818;BME280;54614;47.576;7.524;2022-10-16T06:08:22;98447.00;;;27.46;42.03
67818;BME280;54614;47.576;7.524;2022-10-16T06:10:49;98457.34;;;27.49;42.04
67818;BME280;54614;47.576;7.524;2022-10-16T06:13:25;98455.25;;;27.51;42.18
67818;BME280;54614;47.576;7.524;2022-10-16T06:15:51;98462.88;;;27.54;41.99
67818;BME280;54614;47.576;7.524;2022-10-16T06:18:17;98469.09;;;27.43;42.16
67818;BME280;54614;47.576;7.524;2022-10-16T06:20:42;98477.06;;;27.26;42.73
67818;BME280;54614;47.576;7.524;2022-10-16T06:23:08;98487.50;;;27.23;42.69
67818;BME280;54614;47.576;7.524;2022-10-16T06:25:34;98474.50;;;27.43;42.19
67818;BME280;54614;47.576;7.524;2022-10-16T06:28:00;98472.78;;;27.84;41.55
67818;BME280;54614;47.576;7.524;2022-10-16T06:30:25;98479.22;;;27.59;42.24
67818;BME280;54614;47.576;7.524;2022-10-16T06:32:51;98487.06;;;27.49;42.12
67818;BME280;54614;47.576;7.524;2022-10-16T06:35:17;98491.19;;;27.52;42.34
67818;BME280;54614;47.576;7.524;2022-10-16T06:37:43;98493.66;;;27.53;42.17
67818;BME280;54614;47.576;7.524;2022-10-16T06:40:09;98493.47;;;27.67;41.69
67818;BME280;54614;47.576;7.524;2022-10-16T06:42:34;98502.75;;;27.82;41.12
67818;BME280;54614;47.576;7.524;2022-10-16T06:45:00;98515.44;;;27.82;41.08
67818;BME280;54614;47.576;7.524;2022-10-16T06:47:27;98518.19;;;27.40;42.37
67818;BME280;54614;47.576;7.524;2022-10-16T06:49:53;98515.91;;;27.25;42.79
67818;BME280;54614;47.576;7.524;2022-10-16T06:52:19;98523.59;;;27.40;42.43
67818;BME280;54614;47.576;7.524;2022-10-16T06:54:44;98525.25;;;27.11;43.34
67818;BME280;54614;47.576;7.524;2022-10-16T06:57:10;98524.91;;;26.89;43.37
67818;BME280;54614;47.576;7.524;2022-10-16T06:59:36;98517.09;;;27.83;42.14
67818;BME280;54614;47.576;7.524;2022-10-16T07:02:02;98521.91;;;27.81;42.64
67818;BME280;54614;47.576;7.524;2022-10-16T07:04:28;98524.13;;;27.96;42.58
67818;BME280;54614;47.576;7.524;2022-10-16T07:06:53;98519.22;;;28.28;41.61
67818;BME280;54614;47.576;7.524;2022-10-16T07:09:19;98518.72;;;28.19;41.66
67818;BME280;54614;47.576;7.524;2022-10-16T07:11:45;98535.31;;;27.76;42.53
67818;BME280;54614;47.576;7.524;2022-10-16T07:14:17;98530.84;;;27.81;42.39
67818;BME280;54614;47.576;7.524;2022-10-16T07:16:43;98540.38;;;27.96;42.29
67818;BME280;54614;47.576;7.524;2022-10-16T07:19:09;98542.38;;;28.35;41.35
67818;BME280;54614;47.576;7.524;2022-10-16T07:21:37;98544.00;;;28.36;41.42
67818;BME280;54614;47.576;7.524;2022-10-16T07:24:06;98549.88;;;28.56;41.21
67818;BME280;54614;47.576;7.524;2022-10-16T07:26:35;98561.75;;;28.55;40.94
67818;BME280;54614;47.576;7.524;2022-10-16T07:29:01;98563.16;;;28.58;41.04
67818;BME280;54614;47.576;7.524;2022-10-16T07:31:27;98565.84;;;28.58;40.99
67818;BME280;54614;47.576;7.524;2022-10-16T07:33:54;98563.72;;;28.72;40.62
67818;BME280;54614;47.576;7.524;2022-10-16T07:36:21;98563.75;;;28.60;40.90
67818;BME280;54614;47.576;7.524;2022-10-16T07:38:47;98566.47;;;28.48;40.98
67818;BME280;54614;47.576;7.524;2022-10-16T07:41:18;98575.72;;;28.64;40.85
67818;BME280;54614;47.576;7.524;2022-10-16T07:43:52;98574.81;;;28.59;40.85
67818;BME280;54614;47.576;7.524;2022-10-16T07:46:21;98582.66;;;28.72;40.82
67818;BME280;54614;47.576;7.524;2022-10-16T07:48:48;98577.16;;;28.55;41.00
67818;BME280;54614;47.576;7.524;2022-10-16T07:51:21;98567.34;;;28.77;40.60
67818;BME280;54614;47.576;7.524;2022-10-16T07:53:48;98573.06;;;28.41;41.51
67818;BME280;54614;47.576;7.524;2022-10-16T07:56:16;98576.06;;;28.79;40.76
67818;BME280;54614;47.576;7.524;2022-10-16T07:58:44;98581.94;;;28.88;41.01
67818;BME280;54614;47.576;7.524;2022-10-16T08:01:13;98584.88;;;28.86;41.26
67818;BME280;54614;47.576;7.524;2022-10-16T08:03:43;98598.44;;;28.63;41.98
67818;BME280;54614;47.576;7.524;2022-10-16T08:06:10;98602.53;;;28.89;41.67
67818;BME280;54614;47.576;7.524;2022-10-16T08:08:35;98594.31;;;28.14;42.99
67818;BME280;54614;47.576;7.524;2022-10-16T08:11:01;98592.19;;;28.86;41.61
67818;BME280;54614;47.576;7.524;2022-10-16T08:13:30;98596.47;;;29.10;40.66
67818;BME280;54614;47.576;7.524;2022-10-16T08:15:56;98592.50;;;29.30;40.24
67818;BME280;54614;47.576;7.524;2022-10-16T08:18:22;98592.75;;;29.28;40.32
67818;BME280;54614;47.576;7.524;2022-10-16T08:20:56;98594.63;;;28.99;41.13
67818;BME280;54614;47.576;7.524;2022-10-16T08:23:22;98598.91;;;28.83;41.78
67818;BME280;54614;47.576;7.524;2022-10-16T08:25:48;98603.44;;;29.35;40.25
67818;BME280;54614;47.576;7.524;2022-10-16T08:28:14;98600.63;;;29.58;39.81
67818;BME280;54614;47.576;7.524;2022-10-16T08:30:42;98604.03;;;29.37;40.55
67818;BME280;54614;47.576;7.524;2022-10-16T08:33:08;98602.03;;;29.61;40.25
67818;BME280;54614;47.576;7.524;2022-10-16T08:35:33;98596.88;;;29.59;40.27
67818;BME280;54614;47.576;7.524;2022-10-16T08:37:59;98594.63;;;29.56;40.83
67818;BME280;54614;47.576;7.524;2022-10-16T08:40:30;98601.66;;;29.40;41.18
67818;BME280;54614;47.576;7.524;2022-10-16T08:46:18;98608.72;;;29.13;41.81
67818;BME280;54614;47.576;7.524;2022-10-16T08:48:53;98613.16;;;29.19;41.87
67818;BME280;54614;47.576;7.524;2022-10-16T08:51:25;98616.88;;;29.30;41.87
67818;BME280;54614;47.576;7.524;2022-10-16T08:54:02;98602.84;;;29.04;42.19
67818;BME280;54614;47.576;7.524;2022-10-16T08:56:28;98597.09;;;29.29;41.74
67818;BME280;54614;47.576;7.524;2022-10-16T08:58:55;98602.13;;;29.37;41.18
67818;BME280;54614;47.576;7.524;2022-10-16T09:01:38;98605.56;;;29.33;41.30
67818;BME280;54614;47.576;7.524;2022-10-16T09:13:17;98615.97;;;28.84;42.50
67818;BME280;54614;47.576;7.524;2022-10-16T09:18:57;98615.13;;;28.95;43.13
67818;BME280;54614;47.576;7.524;2022-10-16T09:21:31;98607.03;;;28.60;44.18
67818;BME280;54614;47.576;7.524;2022-10-16T09:24:18;98604.13;;;29.13;42.40
67818;BME280;54614;47.576;7.524;2022-10-16T09:26:46;98606.69;;;29.20;42.65
67818;BME280;54614;47.576;7.524;2022-10-16T09:29:18;98603.78;;;29.10;42.61
67818;BME280;54614;47.576;7.524;2022-10-16T09:31:47;98603.91;;;29.32;42.31
67818;BME280;54614;47.576;7.524;2022-10-16T09:34:36;98605.53;;;29.44;42.35
67818;BME280;54614;47.576;7.524;2022-10-16T09:37:12;98612.47;;;29.40;42.47
67818;BME280;54614;47.576;7.524;2022-10-16T09:39:52;98614.59;;;29.50;42.58
67818;BME280;54614;47.576;7.524;2022-10-16T09:42:34;98615.69;;;29.66;42.16
67818;BME280;54614;47.576;7.524;2022-10-16T09:45:03;98617.16;;;29.73;42.21
67818;BME280;54614;47.576;7.524;2022-10-16T09:47:31;98616.66;;;29.60;42.23
67818;BME280;54614;47.576;7.524;2022-10-16T09:50:20;98624.25;;;29.74;42.07
67818;BME280;54614;47.576;7.524;2022-10-16T09:52:47;98618.78;;;29.58;42.27
67818;BME280;54614;47.576;7.524;2022-10-16T09:55:18;98617.59;;;29.82;42.11
67818;BME280;54614;47.576;7.524;2022-10-16T09:57:54;98619.44;;;30.10;41.35
67818;BME280;54614;47.576;7.524;2022-10-16T10:00:23;98615.94;;;29.81;42.09
67818;BME280;54614;47.576;7.524;2022-10-16T10:02:50;98628.59;;;29.75;42.92
67818;BME280;54614;47.576;7.524;2022-10-16T10:05:27;98618.75;;;29.86;42.38
67818;BME280;54614;47.576;7.524;2022-10-16T10:08:02;98621.53;;;29.91;42.39
67818;BME280;54614;47.576;7.524;2022-10-16T10:10:42;98624.91;;;29.98;42.25
67818;BME280;54614;47.576;7.524;2022-10-16T10:13:21;98622.13;;;29.93;42.16
67818;BME280;54614;47.576;7.524;2022-10-16T10:15:48;98630.09;;;30.00;42.53
67818;BME280;54614;47.576;7.524;2022-10-16T10:18:19;98626.84;;;30.14;42.15
67818;BME280;54614;47.576;7.524;2022-10-16T10:20:59;98620.75;;;30.07;42.37
67818;BME280;54614;47.576;7.524;2022-10-16T10:23:27;98624.91;;;29.98;42.61
67818;BME280;54614;47.576;7.524;2022-10-16T10:26:17;98620.66;;;30.02;42.55
67818;BME280;54614;47.576;7.524;2022-10-16T10:35:07;98611.22;;;30.05;42.72
67818;BME280;54614;47.576;7.524;2022-10-16T10:44:01;98602.56;;;30.25;42.44
67818;BME280;54614;47.576;7.524;2022-10-16T10:46:50;98606.34;;;30.24;42.37
67818;BME280;54614;47.576;7.524;2022-10-16T10:57:51;98595.44;;;30.19;42.99
67818;BME280;54614;47.576;7.524;2022-10-16T11:01:13;98600.50;;;29.98;43.75
67818;BME280;54614;47.576;7.524;2022-10-16T11:06:59;98594.63;;;30.01;42.82
67818;BME280;54614;47.576;7.524;2022-10-16T11:09:40;98584.31;;;30.20;42.24
67818;BME280;54614;47.576;7.524;2022-10-16T11:12:17;98582.84;;;30.12;42.28
67818;BME280;54614;47.576;7.524;2022-10-16T11:15:03;98586.72;;;30.17;42.18
67818;BME280;54614;47.576;7.524;2022-10-16T11:17:49;98578.66;;;30.22;42.09
67818;BME280;54614;47.576;7.524;2022-10-16T11:20:32;98574.38;;;30.09;42.30
67818;BME280;54614;47.576;7.524;2022-10-16T11:23:26;98569.22;;;30.07;42.36
67818;BME280;54614;47.576;7.524;2022-10-16T11:26:00;98570.00;;;30.25;42.16
67818;BME280;54614;47.576;7.524;2022-10-16T11:28:42;98563.97;;;30.39;41.53
67818;BME280;54614;47.576;7.524;2022-10-16T11:34:42;98552.56;;;30.37;41.68
67818;BME280;54614;47.576;7.524;2022-10-16T11:37:14;98556.44;;;30.25;41.75
67818;BME280;54614;47.576;7.524;2022-10-16T11:39:44;98556.06;;;30.16;41.77
67818;BME280;54614;47.576;7.524;2022-10-16T11:42:30;98560.31;;;30.29;41.97
67818;BME280;54614;47.576;7.524;2022-10-16T11:50:57;98567.78;;;30.22;42.34
67818;BME280;54614;47.576;7.524;2022-10-16T11:53:51;98567.53;;;30.23;42.07
67818;BME280;54614;47.576;7.524;2022-10-16T11:56:21;98564.00;;;30.23;42.53
67818;BME280;54614;47.576;7.524;2022-10-16T11:59:06;98565.25;;;30.15;42.79
67818;BME280;54614;47.576;7.524;2022-10-16T12:01:44;98559.94;;;30.59;41.64
67818;BME280;54614;47.576;7.524;2022-10-16T12:04:34;98559.75;;;30.48;41.76
67818;BME280;54614;47.576;7.524;2022-10-16T12:07:21;98557.94;;;30.15;41.91
67818;BME280;54614;47.576;7.524;2022-10-16T12:10:18;98556.97;;;30.05;42.39
67818;BME280;54614;47.576;7.524;2022-10-16T12:12:45;98548.16;;;29.98;42.05
67818;BME280;54614;47.576;7.524;2022-10-16T12:15:30;98545.19;;;29.99;42.26
67818;BME280;54614;47.576;7.524;2022-10-16T12:17:56;98541.41;;;30.00;42.11
67818;BME280;54614;47.576;7.524;2022-10-16T12:20:32;98538.63;;;30.12;41.96
67818;BME280;54614;47.576;7.524;2022-10-16T12:23:05;98532.44;;;30.17;41.58
67818;BME280;54614;47.576;7.524;2022-10-16T12:25:33;98536.38;;;30.26;41.06
67818;BME280;54614;47.576;7.524;2022-10-16T12:28:26;98534.56;;;30.31;41.02
67818;BME280;54614;47.576;7.524;2022-10-16T12:31:00;98534.63;;;30.36;41.08
67818;BME280;54614;47.576;7.524;2022-10-16T12:33:34;98533.38;;;30.44;41.07
67818;BME280;54614;47.576;7.524;2022-10-16T12:36:06;98529.56;;;30.62;40.57
67818;BME280;54614;47.576;7.524;2022-10-16T12:38:50;98520.00;;;30.81;39.81
67818;BME280;54614;47.576;7.524;2022-10-16T12:41:35;98520.94;;;30.92;39.72
67818;BME280;54614;47.576;7.524;2022-10-16T12:44:24;98528.53;;;30.90;39.70
67818;BME280;54614;47.576;7.524;2022-10-16T12:46:51;98522.63;;;30.98;39.82
67818;BME280;54614;47.576;7.524;2022-10-16T12:49:35;98513.94;;;30.96;39.58
67818;BME280;54614;47.576;7.524;2022-10-16T12:52:02;98514.25;;;30.99;39.97
67818;BME280;54614;47.576;7.524;2022-10-16T12:54:35;98517.22;;;30.98;39.50
67818;BME280;54614;47.576;7.524;2022-10-16T13:03:06;98516.91;;;30.94;39.52
67818;BME280;54614;47.576;7.524;2022-10-16T13:14:45;98507.13;;;30.93;39.48
67818;BME280;54614;47.576;7.524;2022-10-16T13:17:45;98512.53;;;30.93;39.57
67818;BME280;54614;47.576;7.524;2022-10-16T13:29:09;98509.78;;;30.88;39.24
67818;BME280;54614;47.576;7.524;2022-10-16T13:31:38;98504.59;;;30.87;39.58
67818;BME280;54614;47.576;7.524;2022-10-16T13:34:12;98505.94;;;30.84;39.48
67818;BME280;54614;47.576;7.524;2022-10-16T13:36:50;98504.03;;;30.85;39.69
67818;BME280;54614;47.576;7.524;2022-10-16T13:39:29;98508.69;;;30.89;39.34
67818;BME280;54614;47.576;7.524;2022-10-16T13:42:11;98505.34;;;30.82;39.27
67818;BME280;54614;47.576;7.524;2022-10-16T13:44:51;98508.38;;;30.86;39.57
67818;BME280;54614;47.576;7.524;2022-10-16T13:47:27;98512.19;;;30.85;39.69
67818;BME280;54614;47.576;7.524;2022-10-16T13:50:09;98502.13;;;30.85;39.48
67818;BME280;54614;47.576;7.524;2022-10-16T13:52:36;98503.78;;;30.86;39.26
67818;BME280;54614;47.576;7.524;2022-10-16T13:55:13;98507.44;;;30.75;39.74
67818;BME280;54614;47.576;7.524;2022-10-16T13:57:40;98504.06;;;30.63;39.85
67818;BME280;54614;47.576;7.524;2022-10-16T14:00:28;98505.03;;;30.57;40.04
67818;BME280;54614;47.576;7.524;2022-10-16T14:03:16;98510.81;;;30.60;40.09
67818;BME280;54614;47.576;7.524;2022-10-16T14:05:49;98507.44;;;30.75;39.79
67818;BME280;54614;47.576;7.524;2022-10-16T14:08:16;98502.53;;;30.72;39.57
67818;BME280;54614;47.576;7.524;2022-10-16T14:10:42;98506.63;;;30.74;39.88
67818;BME280;54614;47.576;7.524;2022-10-16T14:13:19;98506.31;;;30.71;39.83
67818;BME280;54614;47.576;7.524;2022-10-16T14:15:51;98516.69;;;30.74;39.78
67818;BME280;54614;47.576;7.524;2022-10-16T14:18:21;98514.22;;;30.72;39.48
67818;BME280;54614;47.576;7.524;2022-10-16T14:20:49;98519.06;;;30.70;39.91
67818;BME280;54614;47.576;7.524;2022-10-16T14:23:28;98516.34;;;30.70;39.48
67818;BME280;54614;47.576;7.524;2022-10-16T14:26:14;98513.06;;;30.68;39.46
67818;BME280;54614;47.576;7.524;2022-10-16T14:28:42;98516.63;;;30.69;39.83
67818;BME280;54614;47.576;7.524;2022-10-16T14:31:30;98521.66;;;30.60;40.09
67818;BME280;54614;47.576;7.524;2022-10-16T14:33:58;98516.31;;;30.65;39.75
67818;BME280;54614;47.576;7.524;2022-10-16T14:36:27;98524.19;;;30.67;39.52
67818;BME280;54614;47.576;7.524;2022-10-16T14:39:05;98520.59;;;30.61;39.53
67818;BME280;54614;47.576;7.524;2022-10-16T14:41:45;98525.25;;;30.66;39.94
67818;BME280;54614;47.576;7.524;2022-10-16T14:44:12;98517.63;;;30.63;39.62
67818;BME280;54614;47.576;7.524;2022-10-16T14:46:42;98523.31;;;30.61;40.01
67818;BME280;54614;47.576;7.524;2022-10-16T14:51:40;98518.84;;;30.55;40.09
67818;BME280;54614;47.576;7.524;2022-10-16T14:54:12;98524.78;;;30.52;39.82
67818;BME280;54614;47.576;7.524;2022-10-16T14:56:58;98525.81;;;30.46;39.83
67818;BME280;54614;47.576;7.524;2022-10-16T14:59:39;98529.59;;;30.45;39.73